Time;durP1;ratioP1;P1;durP2;ratioP2;P2;SDS_P1;SDS_P2;PMS_P1;PMS_P2;Temp;Humidity;BMP_temperature;BMP_pressure;BME280_temperature;BME280_humidity;BME280_pressure;Samples;Min_cycle;Max_cycle;Signal;HPM_P1;HPM_P2
2023/07/29 00:01:39;;;;;;;3.65;2.45;;;;;;;22.59;52.77;98643.91;5067813;28;20041;-69
2023/07/29 00:04:06;;;;;;;4.00;2.55;;;;;;;22.65;52.72;98635.94;5067614;28;20052;-69
2023/07/29 00:06:33;;;;;;;3.83;3.03;;;;;;;22.66;52.63;98637.63;5067608;28;20053;-69
2023/07/29 00:09:01;;;;;;;3.13;2.58;;;;;;;19.75;52.65;98172.38;5067296;28;20293;-68
2023/07/29 00:11:28;;;;;;;3.88;2.42;;;;;;;22.59;52.86;98650.16;5049809;28;20048;-69
2023/07/29 00:13:55;;;;;;;3.90;2.67;;;;;;;22.58;53.14;98645.78;5067755;28;20056;-69
2023/07/29 00:16:22;;;;;;;3.80;2.78;;;;;;;22.59;52.92;98650.16;5049725;28;20070;-69
2023/07/29 00:18:49;;;;;;;3.92;3.03;;;;;;;22.57;52.91;98654.06;5067428;28;20212;-70
2023/07/29 00:21:15;;;;;;;3.60;2.53;;;;;;;22.60;52.89;98645.59;5049538;28;20099;-70
2023/07/29 00:23:42;;;;;;;4.07;2.58;;;;;;;22.26;53.23;98595.44;5067312;28;20049;-70
2023/07/29 00:26:10;;;;;;;4.43;2.75;;;;;;;22.58;53.06;98643.06;5049619;28;20037;-70
2023/07/29 00:28:37;;;;;;;7.45;3.35;;;;;;;22.57;53.17;98637.84;5049828;28;20098;-70
2023/07/29 00:31:04;;;;;;;3.72;2.72;;;;;;;22.37;53.02;98610.41;5067138;28;20060;-70
2023/07/29 00:33:31;;;;;;;3.53;3.00;;;;;;;22.48;53.21;98649.69;5050597;28;20283;-69
2023/07/29 00:36:01;;;;;;;3.33;2.60;;;;;;;21.34;53.06;98439.78;5067463;28;20053;-70
2023/07/29 00:38:28;;;;;;;3.85;2.72;;;;;;;22.44;52.73;98616.78;5067385;28;20109;-70
2023/07/29 00:40:55;;;;;;;3.88;2.75;;;;;;;22.51;53.23;98635.81;5066954;28;20158;-68
2023/07/29 00:43:23;;;;;;;4.32;2.83;;;;;;;22.52;53.07;98624.00;5067244;28;20052;-68
2023/07/29 00:45:50;;;;;;;4.45;3.10;;;;;;;22.54;53.10;98633.66;5066590;28;20051;-69
2023/07/29 00:48:17;;;;;;;3.63;2.65;;;;;;;22.48;53.24;98630.78;5049085;28;20052;-69
2023/07/29 00:50:44;;;;;;;3.78;3.10;;;;;;;22.52;53.02;98641.03;5066812;28;20059;-68
2023/07/29 00:53:11;;;;;;;5.90;3.28;;;;;;;22.49;53.07;98632.47;5067050;28;20055;-69
2023/07/29 00:55:38;;;;;;;3.90;2.50;;;;;;;22.12;52.93;98566.50;5066260;28;20208;-69
2023/07/29 00:58:05;;;;;;;4.18;2.92;;;;;;;22.32;53.28;98599.28;5066596;28;20060;-69
2023/07/29 01:00:33;;;;;;;3.80;3.00;;;;;;;22.49;53.22;98627.91;5048806;28;20033;-68
2023/07/29 01:03:00;;;;;;;3.72;2.80;;;;;;;22.37;53.28;98599.59;5066277;28;20045;-68
2023/07/29 01:05:35;;;;;;;3.55;2.75;;;;;;;22.45;53.25;98614.94;5048745;28;20293;-70
2023/07/29 01:08:11;;;;;;;3.55;2.70;;;;;;;22.48;53.25;98636.19;5049546;28;20052;-69
2023/07/29 01:10:47;;;;;;;3.83;2.75;;;;;;;22.44;53.24;98619.50;5048693;28;20103;-69
2023/07/29 01:13:20;;;;;;;3.75;2.60;;;;;;;22.42;53.54;98625.06;5066134;28;20053;-70
2023/07/29 01:15:55;;;;;;;4.20;3.10;;;;;;;22.47;53.20;98629.09;5065986;28;20251;-69
2023/07/29 01:18:24;;;;;;;4.68;3.15;;;;;;;22.51;53.16;98619.63;5065669;28;20045;-69
2023/07/29 01:20:54;;;;;;;3.65;2.88;;;;;;;22.40;53.44;98624.41;5066117;28;20040;-70
2023/07/29 01:23:26;;;;;;;6.13;3.05;;;;;;;22.40;53.52;98631.63;5048567;28;20040;-69
2023/07/29 01:25:52;;;;;;;3.78;3.08;;;;;;;22.37;53.87;98622.03;5065857;28;20052;-69
2023/07/29 01:28:19;;;;;;;4.47;3.10;;;;;;;22.34;53.69;98630.47;5066391;28;20045;-69
2023/07/29 01:30:49;;;;;;;4.47;3.10;;;;;;;22.41;53.50;98636.06;5066079;28;20037;-70
2023/07/29 01:33:21;;;;;;;3.63;2.90;;;;;;;21.94;53.76;98574.03;5049462;28;20040;-69
2023/07/29 01:35:51;;;;;;;4.43;3.05;;;;;;;21.97;53.64;98589.84;5066047;28;20082;-69
2023/07/29 01:38:20;;;;;;;3.80;2.92;;;;;;;22.36;53.82;98641.94;5065970;28;20297;-70
2023/07/29 01:40:51;;;;;;;4.22;3.08;;;;;;;22.32;53.96;98645.19;5065610;28;20045;-70
2023/07/29 01:43:23;;;;;;;3.85;3.13;;;;;;;21.80;53.76;98561.28;5065574;28;20136;-70
2023/07/29 01:45:50;;;;;;;5.15;3.13;;;;;;;22.18;54.74;98635.13;5066129;28;20174;-70
2023/07/29 01:48:17;;;;;;;4.03;2.95;;;;;;;22.19;54.65;98637.66;5066354;28;20095;-69
2023/07/29 01:50:44;;;;;;;4.05;3.42;;;;;;;22.14;54.84;98633.78;5065431;28;20045;-70
2023/07/29 01:53:10;;;;;;;5.18;2.90;;;;;;;22.19;54.55;98621.44;5048766;28;20041;-70
2023/07/29 01:55:37;;;;;;;4.30;2.67;;;;;;;22.20;54.34;98617.75;5066006;28;20047;-70
2023/07/29 01:58:05;;;;;;;4.82;3.20;;;;;;;21.82;54.91;98570.88;5065712;28;20053;-70
2023/07/29 02:00:32;;;;;;;4.97;2.97;;;;;;;22.19;54.89;98621.44;5065583;28;20304;-70
2023/07/29 02:02:59;;;;;;;4.95;3.03;;;;;;;22.09;55.59;98616.28;5047993;28;20036;-70
2023/07/29 02:05:25;;;;;;;4.82;2.67;;;;;;;22.15;54.67;98621.97;5065584;28;20204;-70
2023/07/29 02:07:52;;;;;;;5.05;3.08;;;;;;;22.14;54.34;98614.91;5064986;28;20045;-70
2023/07/29 02:10:19;;;;;;;4.00;3.00;;;;;;;22.18;54.17;98614.38;5065327;28;20039;-70
2023/07/29 02:12:45;;;;;;;3.40;2.63;;;;;;;22.13;53.73;98614.06;5065547;28;20292;-70
2023/07/29 02:15:13;;;;;;;3.50;2.80;;;;;;;22.15;53.74;98612.03;5065798;28;20051;-70
2023/07/29 02:17:42;;;;;;;3.65;2.80;;;;;;;22.10;54.06;98617.97;5065841;28;20067;-70
2023/07/29 02:20:10;;;;;;;3.65;2.83;;;;;;;22.09;53.65;98620.81;5065186;28;20352;-70
2023/07/29 02:22:37;;;;;;;4.43;2.60;;;;;;;22.06;53.58;98623.88;5048200;28;20061;-70
2023/07/29 02:25:05;;;;;;;4.35;2.85;;;;;;;21.99;53.38;98617.50;5065013;28;20045;-70
2023/07/29 02:27:32;;;;;;;5.00;3.10;;;;;;;21.99;53.22;98615.63;5065443;28;20053;-70
2023/07/29 02:29:58;;;;;;;3.20;2.50;;;;;;;22.01;53.23;98613.59;5065381;28;20068;-70
2023/07/29 02:32:27;;;;;;;4.35;2.70;;;;;;;21.95;53.43;98608.91;5065429;28;20041;-70
2023/07/29 02:34:53;;;;;;;3.38;2.40;;;;;;;21.93;53.57;98615.50;5065659;28;20112;-70
2023/07/29 02:37:20;;;;;;;4.63;2.75;;;;;;;21.79;52.72;98600.84;5065076;28;20033;-70
2023/07/29 02:39:47;;;;;;;3.53;2.65;;;;;;;21.56;52.81;98571.09;5065335;28;20051;-70
2023/07/29 02:42:14;;;;;;;3.70;2.67;;;;;;;21.94;52.19;98630.66;5064938;28;20090;-70
2023/07/29 02:44:41;;;;;;;3.47;2.42;;;;;;;21.81;52.24;98644.72;5065069;28;20041;-69
2023/07/29 02:47:07;;;;;;;4.57;2.53;;;;;;;21.81;51.63;98643.88;5064941;28;20347;-70
2023/07/29 02:49:35;;;;;;;3.83;2.70;;;;;;;21.72;51.50;98634.94;5047471;28;20045;-69
2023/07/29 02:52:02;;;;;;;3.20;2.15;;;;;;;21.50;51.39;98609.53;5065148;28;20037;-70
2023/07/29 02:54:29;;;;;;;3.35;2.20;;;;;;;21.44;51.68;98602.97;5064859;28;20041;-69
2023/07/29 02:56:56;;;;;;;4.18;2.60;;;;;;;21.45;51.39;98601.97;5047423;28;20052;-70
2023/07/29 02:59:22;;;;;;;3.53;2.42;;;;;;;21.61;51.49;98632.59;5065038;28;20044;-70
2023/07/29 03:01:49;;;;;;;4.00;2.33;;;;;;;21.65;51.24;98628.53;5064720;28;20359;-69
2023/07/29 03:04:16;;;;;;;4.15;2.75;;;;;;;21.63;51.27;98630.56;5065027;28;20096;-69
2023/07/29 03:06:44;;;;;;;3.28;2.20;;;;;;;21.64;51.20;98634.94;5047341;28;20041;-70
2023/07/29 03:09:10;;;;;;;3.08;2.00;;;;;;;21.59;51.37;98638.16;5065021;28;20133;-69
2023/07/29 03:11:37;;;;;;;3.30;2.30;;;;;;;21.38;51.15;98597.44;5064831;28;20111;-69
2023/07/29 03:14:04;;;;;;;3.50;2.20;;;;;;;21.52;51.02;98639.00;5064973;28;20049;-69
2023/07/29 03:16:31;;;;;;;3.55;2.38;;;;;;;21.35;51.12;98612.09;5064985;28;20170;-69
2023/07/29 03:19:00;;;;;;;3.22;2.22;;;;;;;21.45;50.72;98618.13;5064964;28;20064;-70
2023/07/29 03:21:26;;;;;;;2.72;1.90;;;;;;;21.62;50.81;98632.41;5068429;28;20055;-70
2023/07/29 03:23:55;;;;;;;3.40;2.15;;;;;;;21.57;51.13;98642.03;5068381;28;20060;-70
2023/07/29 03:26:21;;;;;;;4.03;2.25;;;;;;;21.57;51.14;98625.88;5068748;28;20052;-69
2023/07/29 03:28:48;;;;;;;3.53;2.15;;;;;;;21.55;51.29;98634.13;5068424;28;20063;-70
2023/07/29 03:31:15;;;;;;;3.33;2.00;;;;;;;21.38;51.40;98609.06;5068411;28;20041;-70
2023/07/29 03:33:41;;;;;;;2.92;2.00;;;;;;;21.50;51.39;98649.13;5050574;28;20091;-69
2023/07/29 03:36:08;;;;;;;3.05;2.13;;;;;;;21.52;51.51;98652.50;5050682;28;20309;-70
2023/07/29 03:38:39;;;;;;;3.75;2.10;;;;;;;21.44;51.83;98654.19;5068675;28;20041;-69
2023/07/29 03:41:08;;;;;;;3.05;2.20;;;;;;;21.46;51.97;98662.09;5068088;28;20108;-69
2023/07/29 03:43:35;;;;;;;4.63;2.72;;;;;;;21.43;51.98;98652.50;5068184;28;20041;-68
2023/07/29 03:46:01;;;;;;;3.45;2.15;;;;;;;21.29;52.14;98631.63;5050400;28;20079;-68
2023/07/29 03:48:28;;;;;;;3.60;2.30;;;;;;;21.46;52.02;98654.84;5067931;28;20052;-69
2023/07/29 03:50:55;;;;;;;3.33;1.98;;;;;;;21.45;52.19;98647.78;5067962;28;20255;-69
2023/07/29 03:53:22;;;;;;;3.53;2.40;;;;;;;21.25;51.87;98608.72;5067723;28;20108;-69
2023/07/29 03:55:49;;;;;;;3.53;2.33;;;;;;;21.07;51.80;98581.13;5068122;28;20048;-69
2023/07/29 03:58:18;;;;;;;3.70;2.22;;;;;;;21.53;52.09;98662.25;5050092;28;20080;-69
2023/07/29 04:00:44;;;;;;;3.40;2.38;;;;;;;21.34;52.15;98637.34;5067127;28;20041;-69
2023/07/29 04:03:11;;;;;;;4.18;2.25;;;;;;;21.45;52.36;98661.25;5067335;28;20118;-69
2023/07/29 04:05:37;;;;;;;3.40;2.30;;;;;;;21.48;52.39;98652.00;5067678;28;20055;-69
2023/07/29 04:08:04;;;;;;;3.28;2.30;;;;;;;21.39;52.50;98653.84;5067512;28;20041;-68
2023/07/29 04:10:31;;;;;;;3.60;2.50;;;;;;;21.37;52.54;98663.97;5067599;28;20055;-69
2023/07/29 04:12:58;;;;;;;3.70;2.53;;;;;;;21.21;52.82;98658.59;5049427;28;20095;-69
2023/07/29 04:15:26;;;;;;;3.60;2.45;;;;;;;21.34;53.02;98661.63;5067492;28;20057;-70
2023/07/29 04:17:53;;;;;;;3.15;2.28;;;;;;;21.39;52.93;98672.72;5067431;28;20358;-69
2023/07/29 04:20:20;;;;;;;3.15;2.33;;;;;;;21.40;53.10;98682.50;5050523;28;20059;-69
2023/07/29 04:22:46;;;;;;;3.50;2.38;;;;;;;21.39;53.16;98682.66;5067543;28;20041;-69
2023/07/29 04:25:13;;;;;;;3.63;2.22;;;;;;;21.35;53.20;98687.56;5067111;28;20267;-69
2023/07/29 04:27:40;;;;;;;3.35;2.22;;;;;;;21.30;53.47;98678.28;5067286;28;20051;-69
2023/07/29 04:30:08;;;;;;;3.50;2.42;;;;;;;21.06;53.43;98652.19;5066665;28;20053;-68
2023/07/29 04:32:36;;;;;;;3.60;2.40;;;;;;;21.31;53.50;98707.75;5067185;28;20041;-69
2023/07/29 04:35:03;;;;;;;3.80;2.15;;;;;;;21.34;53.68;98703.91;5067047;28;20204;-69
2023/07/29 04:37:30;;;;;;;3.53;2.50;;;;;;;21.32;53.55;98701.38;5050033;28;20083;-69
2023/07/29 04:39:56;;;;;;;3.40;2.33;;;;;;;21.34;53.66;98701.19;5066657;28;20062;-70
2023/07/29 04:42:23;;;;;;;3.20;2.38;;;;;;;21.30;53.55;98702.53;5066911;28;20042;-69
2023/07/29 04:44:50;;;;;;;3.17;2.08;;;;;;;21.24;53.62;98704.06;5067210;28;20041;-69
2023/07/29 04:47:17;;;;;;;3.22;2.08;;;;;;;21.30;53.48;98716.88;5066549;28;20053;-69
2023/07/29 04:49:45;;;;;;;3.60;2.53;;;;;;;21.30;53.30;98692.59;5066797;28;20091;-69
2023/07/29 04:52:11;;;;;;;4.38;2.53;;;;;;;21.33;53.55;98703.06;5066758;28;20193;-69
2023/07/29 04:54:38;;;;;;;3.35;2.50;;;;;;;21.31;53.56;98705.06;5066976;28;20049;-69
2023/07/29 04:57:05;;;;;;;3.70;2.25;;;;;;;19.83;53.37;98464.59;5066621;28;20053;-69
2023/07/29 04:59:32;;;;;;;3.33;2.28;;;;;;;21.37;53.33;98700.84;5066743;28;20040;-69
2023/07/29 05:01:59;;;;;;;3.58;2.33;;;;;;;21.38;53.45;98703.38;5048678;28;20048;-69
2023/07/29 05:04:25;;;;;;;3.38;2.33;;;;;;;21.38;53.32;98707.94;5066209;28;20090;-69
2023/07/29 05:06:53;;;;;;;3.47;2.55;;;;;;;21.26;53.91;98720.91;5066500;28;20044;-69
2023/07/29 05:09:21;;;;;;;3.42;2.33;;;;;;;20.69;53.99;98623.84;5066726;28;20049;-69
2023/07/29 05:11:48;;;;;;;3.40;2.30;;;;;;;21.31;53.80;98713.16;5066320;28;20041;-69
2023/07/29 05:14:17;;;;;;;2.92;1.92;;;;;;;21.33;53.64;98718.38;5048622;28;20064;-69
2023/07/29 05:16:44;;;;;;;5.03;2.55;;;;;;;21.35;53.67;98716.34;5066035;28;20094;-69
2023/07/29 05:19:11;;;;;;;3.63;2.53;;;;;;;21.34;53.86;98717.38;5048506;28;20044;-69
2023/07/29 05:21:38;;;;;;;4.53;2.40;;;;;;;21.18;53.82;98699.34;5065670;28;20379;-69
2023/07/29 05:24:07;;;;;;;3.15;2.08;;;;;;;21.33;53.71;98713.00;5048203;28;20107;-69
2023/07/29 05:26:33;;;;;;;3.10;2.10;;;;;;;20.96;53.71;98652.31;5066399;28;20049;-69
2023/07/29 05:29:00;;;;;;;4.45;2.47;;;;;;;21.29;53.78;98695.47;5048392;28;20311;-69
2023/07/29 05:31:27;;;;;;;3.50;2.22;;;;;;;21.38;53.89;98714.16;5066330;28;20049;-69
2023/07/29 05:33:54;;;;;;;3.45;2.30;;;;;;;21.37;53.77;98711.63;5065999;28;20068;-69
2023/07/29 05:36:21;;;;;;;3.40;2.25;;;;;;;21.35;53.83;98717.19;5066290;28;20041;-68
2023/07/29 05:38:47;;;;;;;3.47;2.38;;;;;;;21.34;53.49;98720.91;5048191;28;20236;-69
2023/07/29 05:41:16;;;;;;;3.25;2.15;;;;;;;21.41;53.57;98718.38;5048015;28;20190;-69
2023/07/29 05:43:43;;;;;;;3.28;2.05;;;;;;;21.37;53.53;98720.56;5064922;28;20041;-69
2023/07/29 05:46:10;;;;;;;4.25;2.38;;;;;;;21.41;53.67;98718.38;5065571;28;20075;-69
2023/07/29 05:48:37;;;;;;;6.03;2.00;;;;;;;21.37;53.38;98714.34;5065830;28;20064;-69
2023/07/29 05:51:05;;;;;;;3.30;2.28;;;;;;;21.40;53.42;98714.84;5065781;28;20045;-69
2023/07/29 05:53:31;;;;;;;3.67;2.33;;;;;;;21.45;53.28;98720.56;5065479;28;20100;-69
2023/07/29 05:55:58;;;;;;;3.10;2.28;;;;;;;21.18;53.53;98674.25;5047996;28;20087;-69
2023/07/29 05:58:27;;;;;;;2.97;2.13;;;;;;;21.52;53.48;98731.50;5065413;28;20045;-69
2023/07/29 06:00:53;;;;;;;3.22;2.20;;;;;;;21.51;53.46;98729.00;5065329;28;20040;-69
2023/07/29 06:03:20;;;;;;;3.92;2.20;;;;;;;21.47;53.62;98712.31;5047981;28;20050;-69
2023/07/29 06:05:47;;;;;;;3.55;2.03;;;;;;;21.55;53.47;98716.84;5065856;28;20041;-70
2023/07/29 06:08:13;;;;;;;3.70;1.95;;;;;;;21.38;53.49;98687.22;5065888;28;20045;-69
2023/07/29 06:10:40;;;;;;;5.10;2.63;;;;;;;21.62;53.49;98723.25;5065271;28;20049;-70
2023/07/29 06:13:07;;;;;;;4.57;2.03;;;;;;;20.77;53.55;98579.94;5065585;28;20067;-70
2023/07/29 06:15:35;;;;;;;3.78;2.20;;;;;;;21.65;53.62;98722.91;5065288;28;20346;-70
2023/07/29 06:18:01;;;;;;;2.95;2.13;;;;;;;21.64;54.00;98724.78;5065518;28;20052;-70
2023/07/29 06:20:29;;;;;;;2.88;2.00;;;;;;;21.62;53.81;98724.09;5065427;28;20044;-70
2023/07/29 06:22:56;;;;;;;2.97;2.10;;;;;;;21.66;53.83;98728.13;5065350;28;20048;-70
2023/07/29 06:25:22;;;;;;;2.63;1.75;;;;;;;21.68;54.01;98736.91;5044325;28;20091;-70
2023/07/29 06:27:49;;;;;;;3.15;1.92;;;;;;;18.15;53.63;98152.19;5044361;28;20052;-70
2023/07/29 06:30:16;;;;;;;3.00;2.00;;;;;;;21.73;53.40;98739.09;5045380;28;20052;-69
2023/07/29 06:32:44;;;;;;;7.30;2.05;;;;;;;21.72;53.92;98737.41;5045447;28;20091;-70
2023/07/29 06:35:10;;;;;;;3.00;1.95;;;;;;;21.69;53.79;98729.66;5045737;28;20049;-70
2023/07/29 06:37:37;;;;;;;3.17;2.25;;;;;;;21.69;53.79;98732.34;5045268;28;20041;-70
2023/07/29 06:40:05;;;;;;;3.03;1.95;;;;;;;21.65;53.86;98734.53;5045628;28;20049;-70
2023/07/29 06:42:32;;;;;;;3.70;2.13;;;;;;;21.67;53.68;98737.06;5045214;28;20250;-70
2023/07/29 06:44:58;;;;;;;2.70;1.70;;;;;;;21.55;53.85;98704.22;5045264;28;20051;-69
2023/07/29 06:47:25;;;;;;;4.70;2.15;;;;;;;21.56;53.85;98696.97;5044916;28;20038;-70
2023/07/29 06:49:54;;;;;;;3.55;2.15;;;;;;;21.76;53.66;98738.75;5044699;28;20092;-70
2023/07/29 06:52:21;;;;;;;2.60;1.95;;;;;;;21.84;53.85;98719.03;5045694;28;20042;-70
2023/07/29 06:54:48;;;;;;;2.28;1.67;;;;;;;21.85;53.93;98724.25;5048291;28;20052;-70
2023/07/29 06:57:15;;;;;;;2.90;1.92;;;;;;;21.89;53.85;98709.41;5048990;28;20301;-68
2023/07/29 06:59:41;;;;;;;3.20;2.15;;;;;;;21.78;53.58;98688.16;5048705;28;20099;-68
2023/07/29 07:02:08;;;;;;;2.83;1.90;;;;;;;21.36;53.50;98618.31;5048823;28;20096;-68
2023/07/29 07:04:35;;;;;;;2.75;1.92;;;;;;;21.93;53.61;98713.47;5049085;28;20046;-67
2023/07/29 07:07:03;;;;;;;3.95;1.90;;;;;;;21.76;53.35;98685.66;5048976;28;20041;-68
2023/07/29 07:09:30;;;;;;;3.42;1.90;;;;;;;21.64;52.99;98651.13;5048224;28;20038;-68
2023/07/29 07:11:57;;;;;;;5.07;2.42;;;;;;;22.02;53.03;98715.13;5048049;28;20095;-68
2023/07/29 07:14:23;;;;;;;5.55;2.30;;;;;;;22.03;53.02;98716.81;5048850;28;20103;-67
2023/07/29 07:16:50;;;;;;;3.45;1.80;;;;;;;22.09;53.36;98713.41;5048595;28;20041;-70
2023/07/29 07:19:17;;;;;;;2.80;1.92;;;;;;;22.14;53.36;98712.06;5047392;28;20111;-70
2023/07/29 07:21:43;;;;;;;3.30;2.20;;;;;;;22.16;53.08;98705.47;5048486;28;20045;-71
2023/07/29 07:24:11;;;;;;;2.90;2.00;;;;;;;22.20;53.05;98700.56;5046963;28;20100;-70
2023/07/29 07:26:38;;;;;;;3.75;1.80;;;;;;;22.22;53.05;98701.22;5047874;28;20072;-70
2023/07/29 07:29:05;;;;;;;4.57;2.13;;;;;;;22.30;52.85;98698.50;5048609;28;20041;-68
2023/07/29 07:31:34;;;;;;;3.15;2.33;;;;;;;22.28;52.46;98695.13;5047141;28;20205;-69
2023/07/29 07:34:02;;;;;;;3.97;2.30;;;;;;;22.44;51.86;98702.34;5047595;28;20128;-69
2023/07/29 07:36:28;;;;;;;3.20;2.00;;;;;;;22.51;51.73;98701.47;5048347;28;20104;-69
2023/07/29 07:38:55;;;;;;;3.40;1.85;;;;;;;22.60;51.31;98705.00;5048496;28;20045;-69
2023/07/29 07:41:23;;;;;;;2.83;1.90;;;;;;;22.73;51.14;98695.31;5048641;28;20103;-69
2023/07/29 07:43:50;;;;;;;2.70;1.70;;;;;;;22.82;50.92;98698.78;5048011;28;20042;-69
2023/07/29 07:46:17;;;;;;;2.83;1.85;;;;;;;22.96;50.35;98697.19;5047004;28;20182;-70
2023/07/29 07:48:44;;;;;;;2.80;1.60;;;;;;;23.03;50.01;98698.16;5047518;28;20191;-69
2023/07/29 07:51:12;;;;;;;4.32;1.98;;;;;;;23.26;49.90;98707.13;5046723;28;20044;-69
2023/07/29 07:53:38;;;;;;;3.00;2.05;;;;;;;23.32;49.41;98702.88;5047580;28;20337;-69
2023/07/29 07:56:05;;;;;;;4.43;2.28;;;;;;;23.03;49.68;98679.22;5048146;28;20056;-69
2023/07/29 07:58:34;;;;;;;2.83;1.80;;;;;;;23.39;49.24;98681.34;5047874;28;20045;-69
2023/07/29 08:01:04;;;;;;;2.72;1.95;;;;;;;23.54;48.57;98695.75;5047702;28;20045;-69
2023/07/29 08:03:31;;;;;;;4.55;2.10;;;;;;;23.74;48.38;98734.78;5047883;28;20041;-69
2023/07/29 08:05:58;;;;;;;2.60;1.60;;;;;;;23.85;48.20;98692.91;5046964;28;20046;-69
2023/07/29 08:08:25;;;;;;;2.65;1.85;;;;;;;23.89;48.25;98692.34;5047640;28;20304;-69
2023/07/29 08:10:53;;;;;;;2.75;1.70;;;;;;;23.90;48.30;98698.59;5047849;28;20049;-69
2023/07/29 08:13:20;;;;;;;2.50;1.80;;;;;;;24.13;48.19;98685.84;5047736;28;20037;-69
2023/07/29 08:15:49;;;;;;;2.70;1.63;;;;;;;24.12;47.24;98683.34;5046620;28;20309;-69
2023/07/29 08:18:16;;;;;;;3.08;1.67;;;;;;;24.17;47.25;98675.50;5047412;28;20045;-69
2023/07/29 08:20:52;;;;;;;6.72;2.53;;;;;;;24.18;46.33;98696.13;5047246;28;20316;-69
2023/07/29 08:23:18;;;;;;;7.68;1.67;;;;;;;24.41;46.21;98677.06;5048597;28;20289;-70
2023/07/29 08:25:45;;;;;;;4.00;1.90;;;;;;;24.31;45.81;98690.88;5067183;28;20358;-69
2023/07/29 08:28:12;;;;;;;2.70;1.58;;;;;;;24.41;45.95;98694.13;5066834;28;20087;-69
2023/07/29 08:30:38;;;;;;;2.80;1.75;;;;;;;24.55;45.42;98671.59;5066599;28;20048;-70
2023/07/29 08:33:07;;;;;;;2.88;1.80;;;;;;;24.68;45.03;98675.53;5066828;28;20086;-69
2023/07/29 08:35:34;;;;;;;2.20;1.45;;;;;;;24.66;44.91;98674.88;5066870;28;20064;-69
2023/07/29 08:38:00;;;;;;;4.05;1.70;;;;;;;24.46;45.42;98644.81;5067190;28;20301;-69
2023/07/29 08:40:30;;;;;;;2.33;1.52;;;;;;;24.78;44.29;98687.75;5066783;28;20044;-69
2023/07/29 08:42:59;;;;;;;2.30;1.50;;;;;;;24.60;44.70;98679.16;5066908;28;20037;-69
2023/07/29 08:45:26;;;;;;;3.28;1.60;;;;;;;24.79;44.57;98678.56;5049908;28;20045;-69
2023/07/29 08:47:57;;;;;;;3.05;1.50;;;;;;;24.84;43.96;98667.16;5049421;28;20063;-69
2023/07/29 08:50:26;;;;;;;2.53;1.38;;;;;;;24.47;43.68;98554.41;5066468;28;20049;-69
2023/07/29 08:52:53;;;;;;;2.50;1.52;;;;;;;24.88;43.46;98646.78;5066751;28;20094;-69
2023/07/29 08:55:22;;;;;;;2.60;1.60;;;;;;;24.74;43.40;98609.72;5066690;28;20289;-69
2023/07/29 08:57:49;;;;;;;3.25;1.70;;;;;;;25.10;43.26;98653.06;5066608;28;20047;-69
2023/07/29 09:00:16;;;;;;;3.30;1.67;;;;;;;25.11;43.46;98660.16;5066308;28;20056;-69
2023/07/29 09:02:43;;;;;;;3.78;1.73;;;;;;;25.20;43.89;98648.16;5048687;28;20078;-69
2023/07/29 09:05:10;;;;;;;3.05;1.83;;;;;;;25.19;43.96;98662.75;5048688;28;20243;-69
2023/07/29 09:07:40;;;;;;;2.92;1.70;;;;;;;25.13;43.78;98639.13;5066289;28;20051;-69
2023/07/29 09:10:10;;;;;;;4.25;1.92;;;;;;;25.24;43.98;98652.16;5066127;28;20091;-69
2023/07/29 09:12:37;;;;;;;2.42;1.52;;;;;;;25.57;43.88;98633.47;5049564;28;20087;-69
2023/07/29 09:15:04;;;;;;;2.95;1.55;;;;;;;25.80;43.61;98622.34;5048462;28;20090;-69
2023/07/29 09:17:32;;;;;;;3.13;1.60;;;;;;;25.73;42.85;98626.88;5048426;28;20045;-69
2023/07/29 09:19:59;;;;;;;2.83;1.48;;;;;;;25.36;42.69;98563.00;5066466;28;20289;-69
2023/07/29 09:22:28;;;;;;;2.60;1.60;;;;;;;25.81;42.72;98586.03;5066217;28;20045;-69
2023/07/29 09:24:58;;;;;;;3.03;1.88;;;;;;;26.02;42.45;98614.97;5065381;28;20053;-70
2023/07/29 09:27:26;;;;;;;4.63;1.77;;;;;;;26.17;41.60;98618.41;5065844;28;20049;-70
2023/07/29 09:29:53;;;;;;;2.58;1.67;;;;;;;26.41;41.90;98620.56;5065882;28;20387;-69
2023/07/29 09:32:20;;;;;;;3.17;1.70;;;;;;;26.65;41.38;98610.22;5065510;28;20041;-70
2023/07/29 09:34:48;;;;;;;4.07;1.50;;;;;;;26.80;41.09;98608.16;5065915;28;20104;-70
2023/07/29 09:37:18;;;;;;;2.92;2.00;;;;;;;26.83;40.65;98589.56;5065541;28;20048;-69
2023/07/29 09:39:46;;;;;;;3.33;1.58;;;;;;;26.49;41.00;98614.13;5048307;28;20041;-69
2023/07/29 09:42:18;;;;;;;2.75;1.65;;;;;;;26.53;40.73;98602.66;5065682;28;20075;-69
2023/07/29 09:44:45;;;;;;;2.85;1.77;;;;;;;26.72;40.96;98608.38;5066047;28;20049;-69
2023/07/29 09:47:20;;;;;;;2.10;1.30;;;;;;;26.77;40.60;98603.16;5065723;28;20045;-69
2023/07/29 09:49:47;;;;;;;3.70;1.90;;;;;;;26.64;40.83;98593.09;5065771;28;20070;-70
2023/07/29 09:52:16;;;;;;;3.13;1.98;;;;;;;26.54;40.55;98601.59;5065957;28;20047;-69
2023/07/29 09:54:44;;;;;;;3.67;1.65;;;;;;;26.51;40.63;98593.03;5065361;28;20099;-69
2023/07/29 09:57:12;;;;;;;2.83;1.80;;;;;;;26.29;40.83;98577.91;5065561;28;20045;-69
2023/07/29 09:59:40;;;;;;;2.95;1.70;;;;;;;26.66;40.76;98587.44;5065217;28;20292;-69
2023/07/29 10:02:14;;;;;;;2.65;1.80;;;;;;;26.80;40.44;98584.53;5048220;28;20040;-70
2023/07/29 10:04:42;;;;;;;2.72;1.80;;;;;;;27.05;39.83;98584.78;5047593;28;20044;-70
2023/07/29 10:07:10;;;;;;;3.42;1.80;;;;;;;26.95;39.81;98583.50;5065707;28;20048;-69
2023/07/29 10:09:38;;;;;;;2.65;1.73;;;;;;;27.08;39.65;98568.03;5048538;28;20273;-69
2023/07/29 10:12:07;;;;;;;3.45;1.45;;;;;;;27.04;39.89;98582.25;5065750;28;20048;-70
2023/07/29 10:14:34;;;;;;;2.80;1.60;;;;;;;26.90;39.79;98567.00;5065675;28;20087;-69
2023/07/29 10:17:04;;;;;;;2.55;1.60;;;;;;;27.20;39.20;98570.97;5031613;28;20082;-69
2023/07/29 10:19:31;;;;;;;4.80;2.00;;;;;;;27.24;39.19;98572.25;5065036;28;20331;-69
2023/07/29 10:22:01;;;;;;;4.80;1.70;;;;;;;27.35;39.46;98568.06;5065038;28;20037;-69
2023/07/29 10:24:33;;;;;;;6.63;1.73;;;;;;;27.40;39.10;98571.81;5064766;28;20234;-70
2023/07/29 10:27:01;;;;;;;3.95;1.65;;;;;;;27.52;38.39;98552.13;5048669;28;20067;-70
2023/07/29 10:29:32;;;;;;;3.53;1.45;;;;;;;27.56;38.18;98547.94;5067659;28;20045;-70
2023/07/29 10:31:59;;;;;;;2.75;1.58;;;;;;;27.57;37.31;98527.81;5069549;28;20056;-70
2023/07/29 10:34:28;;;;;;;2.70;1.70;;;;;;;27.88;37.86;98573.44;5069647;28;20049;-70
2023/07/29 10:36:55;;;;;;;2.60;1.65;;;;;;;27.51;37.36;98597.56;5069442;28;20040;-69
2023/07/29 10:39:22;;;;;;;4.57;1.73;;;;;;;27.54;37.23;98572.63;5068703;28;20049;-70
2023/07/29 10:41:59;;;;;;;2.72;1.50;;;;;;;27.58;37.61;98578.50;5069551;28;20110;-70
2023/07/29 10:44:51;;;;;;;3.17;1.55;;;;;;;27.41;37.26;98564.50;5069087;28;20056;-69
2023/07/29 10:47:21;;;;;;;2.25;1.38;;;;;;;27.63;37.13;98562.38;5068806;28;20059;-70
2023/07/29 10:49:51;;;;;;;2.45;1.48;;;;;;;27.94;36.42;98561.69;5051291;28;20041;-70
2023/07/29 10:52:29;;;;;;;2.20;1.42;;;;;;;27.37;36.63;98490.63;5068704;28;20095;-70
2023/07/29 10:54:58;;;;;;;2.90;1.63;;;;;;;27.73;36.75;98555.44;5068860;28;20064;-70
2023/07/29 10:57:33;;;;;;;3.20;1.65;;;;;;;27.74;36.62;98543.50;5068318;28;20056;-70
2023/07/29 11:00:00;;;;;;;2.85;1.90;;;;;;;27.84;36.42;98540.38;5050982;28;20283;-70
2023/07/29 11:02:30;;;;;;;2.58;1.67;;;;;;;28.10;36.45;98543.00;5068988;28;20094;-70
2023/07/29 11:04:59;;;;;;;2.15;1.50;;;;;;;27.82;36.73;98534.28;5051066;28;20045;-68
2023/07/29 11:07:29;;;;;;;3.67;1.45;;;;;;;28.01;37.43;98529.84;5051011;28;20037;-69
2023/07/29 11:10:00;;;;;;;2.90;1.60;;;;;;;27.88;36.80;98492.59;5069008;28;20044;-68
2023/07/29 11:12:38;;;;;;;2.30;1.52;;;;;;;28.16;36.17;98516.75;5068435;28;20060;-68
2023/07/29 11:15:13;;;;;;;2.60;1.80;;;;;;;28.08;36.59;98522.47;5068623;28;20099;-68
2023/07/29 11:17:42;;;;;;;3.55;1.52;;;;;;;27.96;36.79;98516.03;5068875;28;20095;-68
2023/07/29 11:20:11;;;;;;;2.55;1.70;;;;;;;28.09;36.23;98505.06;5068332;28;20053;-68
2023/07/29 11:22:39;;;;;;;2.42;1.50;;;;;;;27.89;35.88;98439.81;5050692;28;20300;-68
2023/07/29 11:25:07;;;;;;;4.45;1.50;;;;;;;28.43;36.02;98504.69;5050546;28;20123;-68
2023/07/29 11:27:34;;;;;;;2.75;1.67;;;;;;;28.06;35.43;98506.34;5068306;28;20280;-68
2023/07/29 11:30:06;;;;;;;2.60;1.52;;;;;;;27.87;36.39;98518.16;5067833;28;20045;-68
2023/07/29 11:32:33;;;;;;;2.28;1.48;;;;;;;27.46;36.19;98472.19;5068265;28;20240;-68
2023/07/29 11:35:03;;;;;;;2.15;1.40;;;;;;;27.88;36.66;98503.50;5067878;28;20107;-68
2023/07/29 11:37:31;;;;;;;2.67;1.70;;;;;;;27.85;36.53;98522.16;5068205;28;20104;-69